sensor_id;sensor_type;location;lat;lon;timestamp;temperature;humidity
22491;DHT22;11412;50.802;4.350;2023-04-24T00:01:20;10.90;99.90
22491;DHT22;11412;50.802;4.350;2023-04-24T00:03:45;10.90;99.90
22491;DHT22;11412;50.802;4.350;2023-04-24T00:06:11;10.70;99.90
22491;DHT22;11412;50.802;4.350;2023-04-24T00:08:37;10.80;99.90
22491;DHT22;11412;50.802;4.350;2023-04-24T00:11:03;10.70;99.90
22491;DHT22;11412;50.802;4.350;2023-04-24T00:13:29;10.70;99.90
22491;DHT22;11412;50.802;4.350;2023-04-24T00:15:55;10.80;99.90
22491;DHT22;11412;50.802;4.350;2023-04-24T00:18:21;10.80;99.90
22491;DHT22;11412;50.802;4.350;2023-04-24T00:20:47;10.70;99.90
22491;DHT22;11412;50.802;4.350;2023-04-24T00:23:13;10.70;99.90
22491;DHT22;11412;50.802;4.350;2023-04-24T00:25:38;10.60;99.90
22491;DHT22;11412;50.802;4.350;2023-04-24T00:28:05;10.50;99.90
22491;DHT22;11412;50.802;4.350;2023-04-24T00:30:31;10.60;99.90
22491;DHT22;11412;50.802;4.350;2023-04-24T00:32:57;10.60;99.90
22491;DHT22;11412;50.802;4.350;2023-04-24T00:35:23;10.70;99.90
22491;DHT22;11412;50.802;4.350;2023-04-24T00:37:49;10.70;99.90
22491;DHT22;11412;50.802;4.350;2023-04-24T00:40:15;10.70;99.90
22491;DHT22;11412;50.802;4.350;2023-04-24T00:42:41;10.80;99.90
22491;DHT22;11412;50.802;4.350;2023-04-24T00:45:07;10.60;99.90
22491;DHT22;11412;50.802;4.350;2023-04-24T00:47:33;10.70;99.90
22491;DHT22;11412;50.802;4.350;2023-04-24T00:50:02;10.50;99.90
22491;DHT22;11412;50.802;4.350;2023-04-24T00:52:28;10.50;99.90
22491;DHT22;11412;50.802;4.350;2023-04-24T00:54:56;10.40;99.90
22491;DHT22;11412;50.802;4.350;2023-04-24T00:57:22;10.40;99.90
22491;DHT22;11412;50.802;4.350;2023-04-24T00:59:49;10.40;99.90
22491;DHT22;11412;50.802;4.350;2023-04-24T01:02:15;10.30;99.90
22491;DHT22;11412;50.802;4.350;2023-04-24T01:04:42;10.60;99.90
22491;DHT22;11412;50.802;4.350;2023-04-24T01:07:08;10.60;99.90
22491;DHT22;11412;50.802;4.350;2023-04-24T01:09:40;10.70;99.90
22491;DHT22;11412;50.802;4.350;2023-04-24T01:12:09;10.70;99.90
22491;DHT22;11412;50.802;4.350;2023-04-24T01:14:35;10.60;99.90
22491;DHT22;11412;50.802;4.350;2023-04-24T01:17:01;10.50;99.90
22491;DHT22;11412;50.802;4.350;2023-04-24T01:19:27;10.50;99.90
22491;DHT22;11412;50.802;4.350;2023-04-24T01:21:53;10.60;99.90
22491;DHT22;11412;50.802;4.350;2023-04-24T01:24:20;10.40;99.90
22491;DHT22;11412;50.802;4.350;2023-04-24T01:26:46;10.40;99.90
22491;DHT22;11412;50.802;4.350;2023-04-24T01:29:12;10.20;99.90
22491;DHT22;11412;50.802;4.350;2023-04-24T01:31:39;10.30;99.90
22491;DHT22;11412;50.802;4.350;2023-04-24T01:34:05;10.20;99.90
22491;DHT22;11412;50.802;4.350;2023-04-24T01:36:32;10.30;99.90
22491;DHT22;11412;50.802;4.350;2023-04-24T01:38:58;10.00;99.90
22491;DHT22;11412;50.802;4.350;2023-04-24T01:41:25;10.10;99.90
22491;DHT22;11412;50.802;4.350;2023-04-24T01:43:50;10.20;99.90
22491;DHT22;11412;50.802;4.350;2023-04-24T01:46:16;10.10;99.90
22491;DHT22;11412;50.802;4.350;2023-04-24T01:48:42;10.00;99.90
22491;DHT22;11412;50.802;4.350;2023-04-24T01:51:09;10.10;99.90
22491;DHT22;11412;50.802;4.350;2023-04-24T01:53:35;10.20;99.90
22491;DHT22;11412;50.802;4.350;2023-04-24T01:56:01;10.00;99.90
22491;DHT22;11412;50.802;4.350;2023-04-24T01:58:28;10.00;99.90
22491;DHT22;11412;50.802;4.350;2023-04-24T02:00:56;9.90;99.90
22491;DHT22;11412;50.802;4.350;2023-04-24T02:03:24;10.00;99.90
22491;DHT22;11412;50.802;4.350;2023-04-24T02:05:50;10.10;99.90
22491;DHT22;11412;50.802;4.350;2023-04-24T02:08:16;10.00;99.90
22491;DHT22;11412;50.802;4.350;2023-04-24T02:10:42;10.00;99.90
22491;DHT22;11412;50.802;4.350;2023-04-24T02:13:07;9.80;99.90
22491;DHT22;11412;50.802;4.350;2023-04-24T02:15:33;9.90;99.90
22491;DHT22;11412;50.802;4.350;2023-04-24T02:17:59;9.80;99.90
22491;DHT22;11412;50.802;4.350;2023-04-24T02:20:25;9.90;99.90
22491;DHT22;11412;50.802;4.350;2023-04-24T02:22:51;10.00;99.90
22491;DHT22;11412;50.802;4.350;2023-04-24T02:25:16;10.00;99.90
22491;DHT22;11412;50.802;4.350;2023-04-24T02:27:42;10.00;99.90
22491;DHT22;11412;50.802;4.350;2023-04-24T02:30:08;10.00;99.90
22491;DHT22;11412;50.802;4.350;2023-04-24T02:32:34;10.00;99.90
22491;DHT22;11412;50.802;4.350;2023-04-24T02:35:00;10.00;99.90
22491;DHT22;11412;50.802;4.350;2023-04-24T02:37:25;10.00;99.90
22491;DHT22;11412;50.802;4.350;2023-04-24T02:39:51;9.90;99.90
22491;DHT22;11412;50.802;4.350;2023-04-24T02:42:16;10.00;99.90
22491;DHT22;11412;50.802;4.350;2023-04-24T02:44:42;10.00;99.90
22491;DHT22;11412;50.802;4.350;2023-04-24T02:47:08;10.00;99.90
22491;DHT22;11412;50.802;4.350;2023-04-24T02:49:34;10.00;99.90
22491;DHT22;11412;50.802;4.350;2023-04-24T02:51:59;10.00;99.90
22491;DHT22;11412;50.802;4.350;2023-04-24T02:54:25;10.00;99.90
22491;DHT22;11412;50.802;4.350;2023-04-24T02:56:51;10.00;99.90
22491;DHT22;11412;50.802;4.350;2023-04-24T02:59:16;10.00;99.90
22491;DHT22;11412;50.802;4.350;2023-04-24T03:01:42;10.00;99.90
22491;DHT22;11412;50.802;4.350;2023-04-24T03:04:08;9.90;99.90
22491;DHT22;11412;50.802;4.350;2023-04-24T03:06:34;9.70;99.90
22491;DHT22;11412;50.802;4.350;2023-04-24T03:09:01;9.80;99.90
22491;DHT22;11412;50.802;4.350;2023-04-24T03:11:27;9.90;99.90
22491;DHT22;11412;50.802;4.350;2023-04-24T03:13:52;10.00;99.90
22491;DHT22;11412;50.802;4.350;2023-04-24T03:16:18;9.90;99.90
22491;DHT22;11412;50.802;4.350;2023-04-24T03:18:44;9.90;99.90
22491;DHT22;11412;50.802;4.350;2023-04-24T03:21:09;9.90;99.90
22491;DHT22;11412;50.802;4.350;2023-04-24T03:23:35;9.90;99.90
22491;DHT22;11412;50.802;4.350;2023-04-24T03:26:01;9.90;99.90
22491;DHT22;11412;50.802;4.350;2023-04-24T03:28:27;10.00;99.90
22491;DHT22;11412;50.802;4.350;2023-04-24T03:30:53;9.90;99.90
22491;DHT22;11412;50.802;4.350;2023-04-24T03:33:19;9.90;99.90
22491;DHT22;11412;50.802;4.350;2023-04-24T03:35:44;9.90;99.90
22491;DHT22;11412;50.802;4.350;2023-04-24T03:38:10;9.80;99.90
22491;DHT22;11412;50.802;4.350;2023-04-24T03:40:36;9.80;99.90
22491;DHT22;11412;50.802;4.350;2023-04-24T03:43:01;9.90;99.90
22491;DHT22;11412;50.802;4.350;2023-04-24T03:45:27;10.00;99.90
22491;DHT22;11412;50.802;4.350;2023-04-24T03:47:53;9.90;99.90
22491;DHT22;11412;50.802;4.350;2023-04-24T03:50:19;9.70;99.90
22491;DHT22;11412;50.802;4.350;2023-04-24T03:52:44;9.50;99.90
22491;DHT22;11412;50.802;4.350;2023-04-24T03:55:10;9.60;99.90
22491;DHT22;11412;50.802;4.350;2023-04-24T03:57:39;9.60;99.90
22491;DHT22;11412;50.802;4.350;2023-04-24T04:00:06;9.50;99.90
22491;DHT22;11412;50.802;4.350;2023-04-24T04:02:31;9.50;99.90
22491;DHT22;11412;50.802;4.350;2023-04-24T04:04:57;9.50;99.90
22491;DHT22;11412;50.802;4.350;2023-04-24T04:07:23;9.60;99.90
22491;DHT22;11412;50.802;4.350;2023-04-24T04:09:48;9.80;99.90
22491;DHT22;11412;50.802;4.350;2023-04-24T04:12:14;9.80;99.90
22491;DHT22;11412;50.802;4.350;2023-04-24T04:14:40;9.80;99.90
22491;DHT22;11412;50.802;4.350;2023-04-24T04:17:06;9.80;99.90
22491;DHT22;11412;50.802;4.350;2023-04-24T04:19:32;9.60;99.90
22491;DHT22;11412;50.802;4.350;2023-04-24T04:21:57;9.60;99.90
22491;DHT22;11412;50.802;4.350;2023-04-24T04:24:24;9.60;99.90
22491;DHT22;11412;50.802;4.350;2023-04-24T04:26:52;9.60;99.90
22491;DHT22;11412;50.802;4.350;2023-04-24T04:29:17;9.50;99.90
22491;DHT22;11412;50.802;4.350;2023-04-24T04:31:47;9.60;99.90
22491;DHT22;11412;50.802;4.350;2023-04-24T04:34:13;9.70;99.90
22491;DHT22;11412;50.802;4.350;2023-04-24T04:36:40;9.70;99.90
22491;DHT22;11412;50.802;4.350;2023-04-24T04:39:06;9.70;99.90
22491;DHT22;11412;50.802;4.350;2023-04-24T04:41:32;9.60;99.90
22491;DHT22;11412;50.802;4.350;2023-04-24T04:44:01;9.70;99.90
22491;DHT22;11412;50.802;4.350;2023-04-24T04:46:27;9.70;99.90
22491;DHT22;11412;50.802;4.350;2023-04-24T04:48:53;9.70;99.90
22491;DHT22;11412;50.802;4.350;2023-04-24T04:51:19;9.70;99.90
22491;DHT22;11412;50.802;4.350;2023-04-24T04:53:45;9.80;99.90
22491;DHT22;11412;50.802;4.350;2023-04-24T04:56:11;9.70;99.90
22491;DHT22;11412;50.802;4.350;2023-04-24T04:58:37;9.60;99.90
22491;DHT22;11412;50.802;4.350;2023-04-24T05:01:03;9.70;99.90
22491;DHT22;11412;50.802;4.350;2023-04-24T05:03:28;9.60;99.90
22491;DHT22;11412;50.802;4.350;2023-04-24T05:05:54;9.60;99.90
22491;DHT22;11412;50.802;4.350;2023-04-24T05:08:20;9.60;99.90
22491;DHT22;11412;50.802;4.350;2023-04-24T05:10:45;9.60;99.90
22491;DHT22;11412;50.802;4.350;2023-04-24T05:13:11;9.70;99.90
22491;DHT22;11412;50.802;4.350;2023-04-24T05:15:37;9.70;99.90
22491;DHT22;11412;50.802;4.350;2023-04-24T05:18:02;9.80;99.90
22491;DHT22;11412;50.802;4.350;2023-04-24T05:20:28;9.70;99.90
22491;DHT22;11412;50.802;4.350;2023-04-24T05:22:54;9.60;99.90
22491;DHT22;11412;50.802;4.350;2023-04-24T05:25:20;9.60;99.90
22491;DHT22;11412;50.802;4.350;2023-04-24T05:27:46;9.60;99.90
22491;DHT22;11412;50.802;4.350;2023-04-24T05:30:12;9.60;99.90
22491;DHT22;11412;50.802;4.350;2023-04-24T05:32:38;9.60;99.90
22491;DHT22;11412;50.802;4.350;2023-04-24T05:35:04;9.40;99.90
22491;DHT22;11412;50.802;4.350;2023-04-24T05:37:29;9.40;99.90
22491;DHT22;11412;50.802;4.350;2023-04-24T05:39:55;9.30;99.90
22491;DHT22;11412;50.802;4.350;2023-04-24T05:42:21;9.30;99.90
22491;DHT22;11412;50.802;4.350;2023-04-24T05:44:47;9.30;99.90
22491;DHT22;11412;50.802;4.350;2023-04-24T05:47:12;9.30;99.90
22491;DHT22;11412;50.802;4.350;2023-04-24T05:49:38;9.40;99.90
22491;DHT22;11412;50.802;4.350;2023-04-24T05:52:04;9.40;99.90
22491;DHT22;11412;50.802;4.350;2023-04-24T05:54:31;9.30;99.90
22491;DHT22;11412;50.802;4.350;2023-04-24T05:56:57;9.30;99.90
22491;DHT22;11412;50.802;4.350;2023-04-24T05:59:23;9.20;99.90
22491;DHT22;11412;50.802;4.350;2023-04-24T06:01:49;9.30;99.90
22491;DHT22;11412;50.802;4.350;2023-04-24T06:04:15;9.30;99.90
22491;DHT22;11412;50.802;4.350;2023-04-24T06:06:41;9.30;99.90
22491;DHT22;11412;50.802;4.350;2023-04-24T06:09:07;9.20;99.90
22491;DHT22;11412;50.802;4.350;2023-04-24T06:11:33;9.20;99.90
22491;DHT22;11412;50.802;4.350;2023-04-24T06:13:58;9.20;99.90
22491;DHT22;11412;50.802;4.350;2023-04-24T06:16:24;9.10;99.90
22491;DHT22;11412;50.802;4.350;2023-04-24T06:18:50;9.20;99.90
22491;DHT22;11412;50.802;4.350;2023-04-24T06:21:16;9.30;99.90
22491;DHT22;11412;50.802;4.350;2023-04-24T06:23:42;9.20;99.90
22491;DHT22;11412;50.802;4.350;2023-04-24T06:26:07;9.20;99.90
22491;DHT22;11412;50.802;4.350;2023-04-24T06:28:33;9.30;99.90
22491;DHT22;11412;50.802;4.350;2023-04-24T06:30:59;9.20;99.90
22491;DHT22;11412;50.802;4.350;2023-04-24T06:33:25;9.10;99.90
22491;DHT22;11412;50.802;4.350;2023-04-24T06:35:50;9.00;99.90
22491;DHT22;11412;50.802;4.350;2023-04-24T06:38:16;9.00;99.90
22491;DHT22;11412;50.802;4.350;2023-04-24T06:40:41;9.20;99.90
22491;DHT22;11412;50.802;4.350;2023-04-24T06:43:07;9.20;99.90
22491;DHT22;11412;50.802;4.350;2023-04-24T06:45:33;9.30;99.90
22491;DHT22;11412;50.802;4.350;2023-04-24T06:47:59;9.40;99.90
22491;DHT22;11412;50.802;4.350;2023-04-24T06:50:25;9.30;99.90
22491;DHT22;11412;50.802;4.350;2023-04-24T06:52:50;9.20;99.90
22491;DHT22;11412;50.802;4.350;2023-04-24T06:55:16;9.20;99.90
22491;DHT22;11412;50.802;4.350;2023-04-24T06:57:42;9.40;99.90
22491;DHT22;11412;50.802;4.350;2023-04-24T07:00:09;9.40;99.90
22491;DHT22;11412;50.802;4.350;2023-04-24T07:02:35;9.40;99.90
22491;DHT22;11412;50.802;4.350;2023-04-24T07:05:01;9.50;99.90
22491;DHT22;11412;50.802;4.350;2023-04-24T07:07:27;9.50;99.90
22491;DHT22;11412;50.802;4.350;2023-04-24T07:09:53;9.60;99.90
22491;DHT22;11412;50.802;4.350;2023-04-24T07:12:19;9.60;99.90
22491;DHT22;11412;50.802;4.350;2023-04-24T07:14:47;9.60;99.90
22491;DHT22;11412;50.802;4.350;2023-04-24T07:17:13;9.70;99.90
22491;DHT22;11412;50.802;4.350;2023-04-24T07:19:40;9.70;99.90
22491;DHT22;11412;50.802;4.350;2023-04-24T07:22:05;9.60;99.90
22491;DHT22;11412;50.802;4.350;2023-04-24T07:24:31;9.60;99.90
22491;DHT22;11412;50.802;4.350;2023-04-24T07:27:00;9.60;99.90
22491;DHT22;11412;50.802;4.350;2023-04-24T07:29:28;9.70;99.90
22491;DHT22;11412;50.802;4.350;2023-04-24T07:31:54;9.90;99.90
22491;DHT22;11412;50.802;4.350;2023-04-24T07:34:20;10.00;99.90
22491;DHT22;11412;50.802;4.350;2023-04-24T07:36:46;10.10;99.90
22491;DHT22;11412;50.802;4.350;2023-04-24T07:39:11;10.00;99.90
22491;DHT22;11412;50.802;4.350;2023-04-24T07:41:37;9.80;99.90
22491;DHT22;11412;50.802;4.350;2023-04-24T07:44:03;9.80;99.90
22491;DHT22;11412;50.802;4.350;2023-04-24T07:46:30;9.70;99.90
22491;DHT22;11412;50.802;4.350;2023-04-24T07:48:55;9.70;99.90
22491;DHT22;11412;50.802;4.350;2023-04-24T07:51:21;9.70;99.90
22491;DHT22;11412;50.802;4.350;2023-04-24T07:53:47;9.70;99.90
22491;DHT22;11412;50.802;4.350;2023-04-24T07:56:13;9.90;99.90
22491;DHT22;11412;50.802;4.350;2023-04-24T07:58:38;9.90;99.90
22491;DHT22;11412;50.802;4.350;2023-04-24T08:01:04;9.90;99.90
22491;DHT22;11412;50.802;4.350;2023-04-24T08:03:30;10.10;99.90
22491;DHT22;11412;50.802;4.350;2023-04-24T08:05:56;10.20;99.90
22491;DHT22;11412;50.802;4.350;2023-04-24T08:08:22;10.20;99.90
22491;DHT22;11412;50.802;4.350;2023-04-24T08:10:49;10.30;99.90
22491;DHT22;11412;50.802;4.350;2023-04-24T08:13:15;10.40;99.90
22491;DHT22;11412;50.802;4.350;2023-04-24T08:15:40;10.50;99.90
22491;DHT22;11412;50.802;4.350;2023-04-24T08:18:07;10.70;99.90
22491;DHT22;11412;50.802;4.350;2023-04-24T08:20:32;10.70;99.90
22491;DHT22;11412;50.802;4.350;2023-04-24T08:22:58;10.80;99.90
22491;DHT22;11412;50.802;4.350;2023-04-24T08:25:24;10.80;99.90
22491;DHT22;11412;50.802;4.350;2023-04-24T08:27:50;10.80;99.90
22491;DHT22;11412;50.802;4.350;2023-04-24T08:30:17;10.80;99.90
22491;DHT22;11412;50.802;4.350;2023-04-24T08:32:43;10.80;99.90
22491;DHT22;11412;50.802;4.350;2023-04-24T08:35:09;10.80;99.90
22491;DHT22;11412;50.802;4.350;2023-04-24T08:37:35;10.80;99.90
22491;DHT22;11412;50.802;4.350;2023-04-24T08:40:06;10.80;99.90
22491;DHT22;11412;50.802;4.350;2023-04-24T08:42:37;10.90;99.90
22491;DHT22;11412;50.802;4.350;2023-04-24T08:45:03;11.00;99.90
22491;DHT22;11412;50.802;4.350;2023-04-24T08:47:29;11.50;99.90
22491;DHT22;11412;50.802;4.350;2023-04-24T08:49:56;12.00;99.90
22491;DHT22;11412;50.802;4.350;2023-04-24T08:52:22;12.80;99.90
22491;DHT22;11412;50.802;4.350;2023-04-24T08:54:48;13.30;99.90
22491;DHT22;11412;50.802;4.350;2023-04-24T08:57:14;13.90;99.90
22491;DHT22;11412;50.802;4.350;2023-04-24T08:59:40;13.90;99.90
22491;DHT22;11412;50.802;4.350;2023-04-24T09:02:06;14.30;99.90
22491;DHT22;11412;50.802;4.350;2023-04-24T09:04:35;14.70;99.90
22491;DHT22;11412;50.802;4.350;2023-04-24T09:07:02;14.80;99.90
22491;DHT22;11412;50.802;4.350;2023-04-24T09:09:30;14.60;99.90
22491;DHT22;11412;50.802;4.350;2023-04-24T09:11:58;14.60;99.90
22491;DHT22;11412;50.802;4.350;2023-04-24T09:14:24;14.50;99.90
22491;DHT22;11412;50.802;4.350;2023-04-24T09:16:51;14.80;99.90
22491;DHT22;11412;50.802;4.350;2023-04-24T09:19:16;15.50;99.90
22491;DHT22;11412;50.802;4.350;2023-04-24T09:21:46;15.90;99.90
22491;DHT22;11412;50.802;4.350;2023-04-24T09:24:16;15.80;99.90
22491;DHT22;11412;50.802;4.350;2023-04-24T09:26:48;15.70;99.90
22491;DHT22;11412;50.802;4.350;2023-04-24T09:29:18;15.30;99.90
22491;DHT22;11412;50.802;4.350;2023-04-24T09:31:45;14.40;99.90
22491;DHT22;11412;50.802;4.350;2023-04-24T09:34:11;14.00;99.90
22491;DHT22;11412;50.802;4.350;2023-04-24T09:36:39;13.90;99.90
22491;DHT22;11412;50.802;4.350;2023-04-24T09:39:10;14.20;99.90
22491;DHT22;11412;50.802;4.350;2023-04-24T09:41:55;14.40;99.90
22491;DHT22;11412;50.802;4.350;2023-04-24T09:44:27;14.80;99.90
22491;DHT22;11412;50.802;4.350;2023-04-24T09:46:57;15.50;99.90
22491;DHT22;11412;50.802;4.350;2023-04-24T09:49:30;15.90;99.90
22491;DHT22;11412;50.802;4.350;2023-04-24T09:52:06;15.40;99.90
22491;DHT22;11412;50.802;4.350;2023-04-24T09:54:31;14.90;99.90
22491;DHT22;11412;50.802;4.350;2023-04-24T09:56:57;14.40;99.90
22491;DHT22;11412;50.802;4.350;2023-04-24T09:59:23;13.80;99.90
22491;DHT22;11412;50.802;4.350;2023-04-24T10:01:49;13.70;99.90
22491;DHT22;11412;50.802;4.350;2023-04-24T10:04:33;13.70;99.90
22491;DHT22;11412;50.802;4.350;2023-04-24T10:06:59;13.50;99.90
22491;DHT22;11412;50.802;4.350;2023-04-24T10:09:29;13.50;99.90
22491;DHT22;11412;50.802;4.350;2023-04-24T10:11:55;13.40;99.90
22491;DHT22;11412;50.802;4.350;2023-04-24T10:14:23;13.10;99.90
22491;DHT22;11412;50.802;4.350;2023-04-24T10:16:50;13.00;99.90
22491;DHT22;11412;50.802;4.350;2023-04-24T10:19:17;13.00;99.90
22491;DHT22;11412;50.802;4.350;2023-04-24T10:21:46;13.10;99.90
22491;DHT22;11412;50.802;4.350;2023-04-24T10:24:17;13.10;99.90
22491;DHT22;11412;50.802;4.350;2023-04-24T10:26:44;13.00;99.90
22491;DHT22;11412;50.802;4.350;2023-04-24T10:29:11;13.30;99.90
22491;DHT22;11412;50.802;4.350;2023-04-24T10:31:38;13.50;99.90
22491;DHT22;11412;50.802;4.350;2023-04-24T10:34:09;13.50;99.90
22491;DHT22;11412;50.802;4.350;2023-04-24T10:36:38;13.40;99.90
22491;DHT22;11412;50.802;4.350;2023-04-24T10:39:09;13.40;99.90
22491;DHT22;11412;50.802;4.350;2023-04-24T10:41:37;13.20;99.90
22491;DHT22;11412;50.802;4.350;2023-04-24T10:44:11;13.00;99.90
22491;DHT22;11412;50.802;4.350;2023-04-24T10:46:37;13.00;99.90
22491;DHT22;11412;50.802;4.350;2023-04-24T10:49:07;13.10;99.90
22491;DHT22;11412;50.802;4.350;2023-04-24T10:51:51;13.20;99.90
22491;DHT22;11412;50.802;4.350;2023-04-24T10:59:48;12.90;99.90
22491;DHT22;11412;50.802;4.350;2023-04-24T11:02:15;12.70;99.90
22491;DHT22;11412;50.802;4.350;2023-04-24T11:04:41;12.60;99.90
22491;DHT22;11412;50.802;4.350;2023-04-24T11:07:13;12.50;99.90
22491;DHT22;11412;50.802;4.350;2023-04-24T11:09:39;12.40;99.90
22491;DHT22;11412;50.802;4.350;2023-04-24T11:12:10;12.40;99.90
22491;DHT22;11412;50.802;4.350;2023-04-24T11:17:34;12.80;99.90
22491;DHT22;11412;50.802;4.350;2023-04-24T11:20:04;13.10;99.90
22491;DHT22;11412;50.802;4.350;2023-04-24T11:22:35;13.50;99.90
22491;DHT22;11412;50.802;4.350;2023-04-24T11:25:02;13.80;99.90
22491;DHT22;11412;50.802;4.350;2023-04-24T11:27:42;14.00;99.90
22491;DHT22;11412;50.802;4.350;2023-04-24T11:30:09;13.60;99.90
22491;DHT22;11412;50.802;4.350;2023-04-24T11:32:37;13.50;99.90
22491;DHT22;11412;50.802;4.350;2023-04-24T11:37:39;13.60;99.90
22491;DHT22;11412;50.802;4.350;2023-04-24T11:40:07;13.80;99.90
22491;DHT22;11412;50.802;4.350;2023-04-24T11:42:37;14.00;99.90
22491;DHT22;11412;50.802;4.350;2023-04-24T11:45:14;14.00;99.90
22491;DHT22;11412;50.802;4.350;2023-04-24T11:47:41;13.60;99.90
22491;DHT22;11412;50.802;4.350;2023-04-24T11:50:09;13.50;99.90
22491;DHT22;11412;50.802;4.350;2023-04-24T11:52:40;13.60;99.90
22491;DHT22;11412;50.802;4.350;2023-04-24T11:57:45;14.50;99.90
22491;DHT22;11412;50.802;4.350;2023-04-24T12:02:45;15.80;99.90
22491;DHT22;11412;50.802;4.350;2023-04-24T12:05:21;16.20;99.90
22491;DHT22;11412;50.802;4.350;2023-04-24T12:07:47;16.10;99.90
22491;DHT22;11412;50.802;4.350;2023-04-24T12:10:12;16.30;99.90
22491;DHT22;11412;50.802;4.350;2023-04-24T12:12:38;15.90;99.90
22491;DHT22;11412;50.802;4.350;2023-04-24T12:15:08;15.40;99.90
22491;DHT22;11412;50.802;4.350;2023-04-24T12:17:35;15.20;99.90
22491;DHT22;11412;50.802;4.350;2023-04-24T12:20:04;14.80;99.90
22491;DHT22;11412;50.802;4.350;2023-04-24T12:25:16;15.10;99.90
22491;DHT22;11412;50.802;4.350;2023-04-24T12:27:43;15.70;99.90
22491;DHT22;11412;50.802;4.350;2023-04-24T12:30:16;16.10;99.90
22491;DHT22;11412;50.802;4.350;2023-04-24T12:32:47;16.20;99.90
22491;DHT22;11412;50.802;4.350;2023-04-24T12:35:19;16.60;99.90
22491;DHT22;11412;50.802;4.350;2023-04-24T12:37:46;17.00;99.90
22491;DHT22;11412;50.802;4.350;2023-04-24T12:40:12;17.10;99.90
22491;DHT22;11412;50.802;4.350;2023-04-24T12:42:56;17.40;99.90
22491;DHT22;11412;50.802;4.350;2023-04-24T12:45:22;17.20;99.90
22491;DHT22;11412;50.802;4.350;2023-04-24T12:47:49;16.70;99.90
22491;DHT22;11412;50.802;4.350;2023-04-24T12:50:15;17.00;99.90
22491;DHT22;11412;50.802;4.350;2023-04-24T12:52:42;17.60;99.90
22491;DHT22;11412;50.802;4.350;2023-04-24T12:55:08;18.00;99.90
22491;DHT22;11412;50.802;4.350;2023-04-24T12:57:35;18.10;99.90
22491;DHT22;11412;50.802;4.350;2023-04-24T13:00:02;17.70;99.90
22491;DHT22;11412;50.802;4.350;2023-04-24T13:02:31;17.40;99.90
22491;DHT22;11412;50.802;4.350;2023-04-24T13:04:58;16.90;99.90
22491;DHT22;11412;50.802;4.350;2023-04-24T13:07:24;16.50;99.90
22491;DHT22;11412;50.802;4.350;2023-04-24T13:09:51;16.20;99.90
22491;DHT22;11412;50.802;4.350;2023-04-24T13:12:17;16.00;99.90
22491;DHT22;11412;50.802;4.350;2023-04-24T13:14:43;16.20;99.90
22491;DHT22;11412;50.802;4.350;2023-04-24T13:17:09;16.00;99.90
22491;DHT22;11412;50.802;4.350;2023-04-24T13:19:38;15.70;99.90
22491;DHT22;11412;50.802;4.350;2023-04-24T13:22:04;15.40;99.90
22491;DHT22;11412;50.802;4.350;2023-04-24T13:24:31;15.80;99.90
22491;DHT22;11412;50.802;4.350;2023-04-24T13:26:57;16.00;99.90
22491;DHT22;11412;50.802;4.350;2023-04-24T13:29:23;15.40;99.90
22491;DHT22;11412;50.802;4.350;2023-04-24T13:31:53;15.80;99.90
22491;DHT22;11412;50.802;4.350;2023-04-24T13:34:21;15.50;99.90
22491;DHT22;11412;50.802;4.350;2023-04-24T13:36:46;15.70;99.90
22491;DHT22;11412;50.802;4.350;2023-04-24T13:39:12;16.10;99.90
22491;DHT22;11412;50.802;4.350;2023-04-24T13:41:38;16.40;99.90
22491;DHT22;11412;50.802;4.350;2023-04-24T13:44:05;16.20;99.90
22491;DHT22;11412;50.802;4.350;2023-04-24T13:46:32;15.90;99.90
22491;DHT22;11412;50.802;4.350;2023-04-24T13:48:58;15.90;99.90
22491;DHT22;11412;50.802;4.350;2023-04-24T13:51:27;15.80;99.90
22491;DHT22;11412;50.802;4.350;2023-04-24T13:53:53;15.50;99.90
22491;DHT22;11412;50.802;4.350;2023-04-24T13:56:19;15.40;99.90
22491;DHT22;11412;50.802;4.350;2023-04-24T13:58:45;15.30;99.90
22491;DHT22;11412;50.802;4.350;2023-04-24T14:01:12;15.20;99.90
22491;DHT22;11412;50.802;4.350;2023-04-24T14:03:38;15.10;99.90
22491;DHT22;11412;50.802;4.350;2023-04-24T14:06:04;15.10;99.90
22491;DHT22;11412;50.802;4.350;2023-04-24T14:08:32;15.20;99.90
22491;DHT22;11412;50.802;4.350;2023-04-24T14:10:58;15.10;99.90
22491;DHT22;11412;50.802;4.350;2023-04-24T14:13:24;14.80;99.90
22491;DHT22;11412;50.802;4.350;2023-04-24T14:15:49;14.70;99.90
22491;DHT22;11412;50.802;4.350;2023-04-24T14:18:15;14.60;99.90
22491;DHT22;11412;50.802;4.350;2023-04-24T14:20:41;14.40;99.90
22491;DHT22;11412;50.802;4.350;2023-04-24T14:23:07;14.30;99.90
22491;DHT22;11412;50.802;4.350;2023-04-24T14:25:32;14.30;99.90
22491;DHT22;11412;50.802;4.350;2023-04-24T14:27:58;14.20;99.90
22491;DHT22;11412;50.802;4.350;2023-04-24T14:30:24;14.00;99.90
22491;DHT22;11412;50.802;4.350;2023-04-24T14:32:50;13.80;99.90
22491;DHT22;11412;50.802;4.350;2023-04-24T14:35:15;13.80;99.90
22491;DHT22;11412;50.802;4.350;2023-04-24T14:37:41;13.80;99.90
22491;DHT22;11412;50.802;4.350;2023-04-24T14:40:08;13.80;99.90
22491;DHT22;11412;50.802;4.350;2023-04-24T14:42:34;13.70;99.90
22491;DHT22;11412;50.802;4.350;2023-04-24T14:45:00;13.60;99.90
22491;DHT22;11412;50.802;4.350;2023-04-24T14:47:26;13.60;99.90
22491;DHT22;11412;50.802;4.350;2023-04-24T14:49:52;13.60;99.90
22491;DHT22;11412;50.802;4.350;2023-04-24T14:52:18;13.60;99.90
22491;DHT22;11412;50.802;4.350;2023-04-24T14:54:45;13.50;99.90
22491;DHT22;11412;50.802;4.350;2023-04-24T14:57:10;13.30;99.90
22491;DHT22;11412;50.802;4.350;2023-04-24T14:59:36;13.40;99.90
22491;DHT22;11412;50.802;4.350;2023-04-24T15:02:02;13.40;99.90
22491;DHT22;11412;50.802;4.350;2023-04-24T15:04:28;13.40;99.90
22491;DHT22;11412;50.802;4.350;2023-04-24T15:06:55;13.40;99.90
22491;DHT22;11412;50.802;4.350;2023-04-24T15:09:24;13.40;99.90
22491;DHT22;11412;50.802;4.350;2023-04-24T15:11:52;13.40;99.90
22491;DHT22;11412;50.802;4.350;2023-04-24T15:14:18;13.50;99.90
22491;DHT22;11412;50.802;4.350;2023-04-24T15:16:44;13.60;99.90
22491;DHT22;11412;50.802;4.350;2023-04-24T15:19:10;13.50;99.90
22491;DHT22;11412;50.802;4.350;2023-04-24T15:21:37;13.50;99.90
22491;DHT22;11412;50.802;4.350;2023-04-24T15:24:04;13.30;99.90
22491;DHT22;11412;50.802;4.350;2023-04-24T15:26:30;13.40;99.90
22491;DHT22;11412;50.802;4.350;2023-04-24T15:28:56;13.60;99.90
22491;DHT22;11412;50.802;4.350;2023-04-24T15:31:22;13.70;99.90
22491;DHT22;11412;50.802;4.350;2023-04-24T15:33:49;13.60;99.90
22491;DHT22;11412;50.802;4.350;2023-04-24T15:36:15;13.60;99.90
22491;DHT22;11412;50.802;4.350;2023-04-24T15:38:42;13.60;99.90
22491;DHT22;11412;50.802;4.350;2023-04-24T15:41:08;13.50;99.90
22491;DHT22;11412;50.802;4.350;2023-04-24T15:43:34;13.40;99.90
22491;DHT22;11412;50.802;4.350;2023-04-24T15:46:01;13.30;99.90
22491;DHT22;11412;50.802;4.350;2023-04-24T15:48:27;13.20;99.90
22491;DHT22;11412;50.802;4.350;2023-04-24T15:50:53;13.20;99.90